createdAt,value
2023-02-28T00:00:20.524Z,-1.92
2023-02-28T00:02:48.042Z,-1.97
2023-02-28T00:05:17.558Z,-1.92
2023-02-28T00:07:44.109Z,-1.79
2023-02-28T00:10:13.536Z,-1.75
2023-02-28T00:12:40.204Z,-1.80
2023-02-28T00:15:08.438Z,-1.90
2023-02-28T00:17:35.027Z,-1.82
2023-02-28T00:20:12.859Z,-1.70
2023-02-28T00:22:41.578Z,-1.91
2023-02-28T00:25:08.810Z,-1.75
2023-02-28T00:27:36.542Z,-1.58
2023-02-28T00:30:04.158Z,-1.71
2023-02-28T00:32:30.981Z,-1.83
2023-02-28T00:34:57.682Z,-1.78
2023-02-28T00:37:24.208Z,-2.03
2023-02-28T00:39:50.683Z,-2.22
2023-02-28T00:42:17.279Z,-2.03
2023-02-28T00:44:43.788Z,-1.88
2023-02-28T00:47:10.289Z,-1.71
2023-02-28T00:49:36.849Z,-1.70
2023-02-28T00:52:03.694Z,-1.73
2023-02-28T00:54:30.206Z,-1.90
2023-02-28T00:56:56.796Z,-1.94
2023-02-28T00:59:23.304Z,-1.76
2023-02-28T01:01:49.817Z,-1.77
2023-02-28T01:04:16.372Z,-1.63
2023-02-28T01:06:43.319Z,-1.63
2023-02-28T01:09:10.410Z,-1.65
2023-02-28T01:11:37.105Z,-1.64
2023-02-28T01:14:05.122Z,-1.61
2023-02-28T01:16:32.253Z,-1.60
2023-02-28T01:18:59.087Z,-1.58
2023-02-28T01:21:25.617Z,-1.57
2023-02-28T01:23:52.220Z,-1.63
2023-02-28T01:26:23.443Z,-1.60
2023-02-28T01:28:51.853Z,-1.66
2023-02-28T01:31:20.143Z,-1.83
2023-02-28T01:33:47.270Z,-1.63
2023-02-28T01:36:16.797Z,-1.58
2023-02-28T01:38:43.921Z,-1.53
2023-02-28T01:41:16.745Z,-1.79
2023-02-28T01:43:43.268Z,-1.72
2023-02-28T01:46:10.603Z,-1.48
2023-02-28T01:48:56.259Z,-1.46
2023-02-28T01:51:55.972Z,-1.43
2023-02-28T01:54:26.747Z,-1.48
2023-02-28T01:56:58.054Z,-1.45
2023-02-28T01:59:47.415Z,-1.50
2023-02-28T02:02:14.955Z,-1.48
2023-02-28T02:04:51.894Z,-1.64
2023-02-28T02:07:18.514Z,-1.76
2023-02-28T02:09:45.032Z,-1.63
2023-02-28T02:12:44.828Z,-1.54
2023-02-28T02:15:18.793Z,-1.49
2023-02-28T02:17:49.273Z,-1.58
2023-02-28T02:20:37.733Z,-1.61
2023-02-28T02:23:15.304Z,-1.63
2023-02-28T02:25:54.653Z,-1.92
2023-02-28T02:28:46.878Z,-1.74
2023-02-28T02:31:34.051Z,-1.74
2023-02-28T02:34:25.159Z,-1.65
2023-02-28T02:37:21.251Z,-1.61
2023-02-28T02:40:01.500Z,-1.60
2023-02-28T02:42:43.622Z,-1.62
2023-02-28T02:45:20.061Z,-1.59
2023-02-28T02:47:46.853Z,-1.43
2023-02-28T02:50:20.485Z,-1.50
2023-02-28T02:52:52.150Z,-1.53
2023-02-28T02:55:21.364Z,-1.61
2023-02-28T02:57:59.958Z,-1.60
2023-02-28T03:00:31.989Z,-1.55
2023-02-28T03:02:59.082Z,-1.48
2023-02-28T03:05:29.709Z,-1.53
2023-02-28T03:07:56.222Z,-1.51
2023-02-28T03:10:36.374Z,-1.52
2023-02-28T03:13:20.910Z,-1.53
2023-02-28T03:16:02.236Z,-1.58
2023-02-28T03:18:44.477Z,-1.49
2023-02-28T03:21:31.416Z,-1.52
2023-02-28T03:24:11.708Z,-1.47
2023-02-28T03:26:44.467Z,-1.47
2023-02-28T03:29:19.033Z,-1.46
2023-02-28T03:31:59.294Z,-1.55
2023-02-28T03:34:37.350Z,-1.49
2023-02-28T03:37:10.462Z,-1.49
2023-02-28T03:40:00.445Z,-1.52
2023-02-28T03:42:32.160Z,-1.47
2023-02-28T03:45:03.720Z,-1.50
2023-02-28T03:47:36.891Z,-1.48
2023-02-28T03:50:15.981Z,-1.52
2023-02-28T03:52:52.386Z,-1.53
2023-02-28T03:55:19.862Z,-1.58
2023-02-28T03:58:00.285Z,-1.77
2023-02-28T04:00:39.089Z,-1.98
2023-02-28T04:03:05.918Z,-1.63
2023-02-28T04:05:33.021Z,-1.65
2023-02-28T04:08:08.237Z,-1.85
2023-02-28T04:10:35.212Z,-1.69
2023-02-28T04:13:01.698Z,-1.56
2023-02-28T04:15:28.429Z,-1.57
2023-02-28T04:17:54.940Z,-1.53
2023-02-28T04:20:21.422Z,-1.77
2023-02-28T04:22:47.956Z,-1.98
2023-02-28T04:25:14.514Z,-1.78
2023-02-28T04:27:41.042Z,-1.62
2023-02-28T04:30:08.125Z,-1.60
2023-02-28T04:32:34.689Z,-1.75
2023-02-28T04:35:01.162Z,-1.95
2023-02-28T04:37:29.860Z,-1.85
2023-02-28T04:39:56.369Z,-1.78
2023-02-28T04:42:22.933Z,-1.78
2023-02-28T04:44:49.438Z,-1.70
2023-02-28T04:47:15.948Z,-1.56
2023-02-28T04:49:42.583Z,-1.64
2023-02-28T04:52:09.143Z,-1.59
2023-02-28T04:54:36.291Z,-1.62
2023-02-28T04:57:02.835Z,-1.58
2023-02-28T04:59:29.306Z,-1.91
2023-02-28T05:01:55.814Z,-1.99
2023-02-28T05:04:22.392Z,-1.79
2023-02-28T05:06:48.899Z,-1.76
2023-02-28T05:09:15.383Z,-1.50
2023-02-28T05:11:42.090Z,-1.48
2023-02-28T05:14:13.050Z,-1.48
2023-02-28T05:16:39.630Z,-1.45
2023-02-28T05:19:06.207Z,-1.44
2023-02-28T05:21:50.831Z,-1.62
2023-02-28T05:24:23.614Z,-1.83
2023-02-28T05:26:53.038Z,-1.77
2023-02-28T05:29:19.544Z,-1.67
2023-02-28T05:31:46.406Z,-1.71
2023-02-28T05:34:13.662Z,-1.72
2023-02-28T05:36:40.366Z,-1.66
2023-02-28T05:39:13.349Z,-1.63
2023-02-28T05:41:43.606Z,-1.69
2023-02-28T05:44:11.154Z,-1.69
2023-02-28T05:46:37.712Z,-1.60
2023-02-28T05:49:04.411Z,-1.62
2023-02-28T05:51:31.323Z,-1.72
2023-02-28T05:54:01.544Z,-1.74
2023-02-28T05:56:28.135Z,-1.73
2023-02-28T05:58:54.717Z,-1.79
2023-02-28T06:01:31.978Z,-1.65
2023-02-28T06:04:01.051Z,-1.60
2023-02-28T06:06:27.888Z,-1.61
2023-02-28T06:08:54.457Z,-1.62
2023-02-28T06:11:21.430Z,-1.54
2023-02-28T06:13:48.360Z,-1.53
2023-02-28T06:16:15.016Z,-1.58
2023-02-28T06:18:41.605Z,-1.32
2023-02-28T06:21:09.956Z,-1.40
2023-02-28T06:23:36.952Z,-1.32
2023-02-28T06:26:03.609Z,-1.01
2023-02-28T06:28:30.166Z,-0.95
2023-02-28T06:30:56.883Z,-0.71
2023-02-28T06:33:23.517Z,-0.33
2023-02-28T06:35:53.633Z,-0.14
2023-02-28T06:38:20.301Z,-0.12
2023-02-28T06:40:54.910Z,-0.03
2023-02-28T06:43:21.879Z,0.09
2023-02-28T06:45:48.351Z,0.18
2023-02-28T06:48:14.839Z,0.70
2023-02-28T06:50:41.629Z,1.70
2023-02-28T06:53:08.229Z,3.53
2023-02-28T06:55:34.745Z,4.66
2023-02-28T06:58:01.327Z,5.69
2023-02-28T07:00:27.898Z,6.90
2023-02-28T07:02:56.117Z,8.38
2023-02-28T07:05:22.670Z,9.45
2023-02-28T07:07:49.189Z,10.39
2023-02-28T07:10:20.178Z,10.83
2023-02-28T07:12:47.023Z,12.06
2023-02-28T07:15:13.551Z,10.78
2023-02-28T07:17:40.098Z,11.58
2023-02-28T07:20:07.157Z,12.72
2023-02-28T07:22:33.701Z,13.38
2023-02-28T07:25:00.173Z,12.70
2023-02-28T07:27:26.749Z,14.43
2023-02-28T07:29:54.266Z,11.20
2023-02-28T07:32:20.830Z,12.80
2023-02-28T07:34:47.399Z,11.51
2023-02-28T07:37:13.919Z,4.88
2023-02-28T07:39:42.880Z,4.69
2023-02-28T07:42:12.276Z,10.72
2023-02-28T07:44:42.162Z,11.04
2023-02-28T07:47:10.034Z,14.65
2023-02-28T07:49:39.811Z,10.65
2023-02-28T07:52:08.176Z,11.85
2023-02-28T07:54:35.177Z,4.69
2023-02-28T07:57:01.697Z,9.60
2023-02-28T07:59:29.504Z,11.68
2023-02-28T08:01:59.004Z,8.18
2023-02-28T08:04:26.077Z,11.00
2023-02-28T08:06:55.213Z,13.74
2023-02-28T08:09:21.734Z,14.83
2023-02-28T08:11:48.354Z,14.82
2023-02-28T08:14:14.905Z,8.54
2023-02-28T08:16:41.481Z,11.37
2023-02-28T08:19:08.005Z,16.42
2023-02-28T08:21:34.609Z,11.88
2023-02-28T08:24:01.141Z,14.44
2023-02-28T08:26:27.694Z,13.65
2023-02-28T08:28:56.120Z,10.82
2023-02-28T08:31:24.093Z,14.75
2023-02-28T08:33:52.948Z,17.01
2023-02-28T08:36:21.257Z,18.78
2023-02-28T08:38:47.881Z,17.75
2023-02-28T08:41:14.542Z,18.52
2023-02-28T08:43:41.885Z,17.52
2023-02-28T08:46:09.433Z,17.63
2023-02-28T08:48:38.907Z,18.66
2023-02-28T08:51:08.674Z,19.04
2023-02-28T08:53:36.692Z,20.42
2023-02-28T08:56:12.025Z,17.10
2023-02-28T08:58:38.836Z,12.32
2023-02-28T09:01:29.408Z,11.76
2023-02-28T09:06:43.972Z,12.30
2023-02-28T09:09:10.652Z,12.84
2023-02-28T09:11:37.668Z,9.87
2023-02-28T09:14:04.663Z,11.82
2023-02-28T09:16:33.409Z,10.07
2023-02-28T09:19:00.263Z,12.59
2023-02-28T09:21:27.650Z,11.96
2023-02-28T09:23:54.339Z,11.20
2023-02-28T09:26:27.071Z,11.27
2023-02-28T09:28:55.915Z,9.98
2023-02-28T09:31:26.214Z,9.91
2023-02-28T09:33:55.125Z,9.17
2023-02-28T09:36:23.454Z,8.70
2023-02-28T09:38:53.730Z,8.63
2023-02-28T09:41:26.544Z,9.35
2023-02-28T09:43:57.525Z,8.69
2023-02-28T09:46:53.653Z,9.62
2023-02-28T09:49:35.856Z,9.33
2023-02-28T09:52:05.608Z,10.30
2023-02-28T09:54:34.248Z,10.54
2023-02-28T09:57:07.971Z,10.06
2023-02-28T10:00:02.908Z,8.64
2023-02-28T10:02:54.297Z,8.68
2023-02-28T10:05:35.896Z,8.20
2023-02-28T10:08:17.092Z,8.86
2023-02-28T10:10:47.625Z,8.80
2023-02-28T10:13:26.307Z,11.43
2023-02-28T10:15:57.579Z,12.90
2023-02-28T10:18:29.594Z,14.16
2023-02-28T10:20:57.554Z,8.70
2023-02-28T10:23:32.747Z,7.80
2023-02-28T10:26:12.896Z,9.22
2023-02-28T10:28:40.223Z,8.28
2023-02-28T10:31:17.704Z,7.58
2023-02-28T10:33:46.101Z,10.92
2023-02-28T10:36:18.096Z,8.18
2023-02-28T10:38:45.921Z,11.68
2023-02-28T10:41:37.319Z,8.79
2023-02-28T10:44:24.553Z,9.68
2023-02-28T10:46:52.246Z,9.41
2023-02-28T10:49:31.640Z,8.25
2023-02-28T10:52:02.206Z,9.27
2023-02-28T10:54:38.822Z,11.68
2023-02-28T10:57:29.549Z,11.16
2023-02-28T11:00:27.841Z,12.36
2023-02-28T11:02:54.553Z,11.63
2023-02-28T11:05:28.752Z,9.56
2023-02-28T11:07:57.974Z,9.87
2023-02-28T11:10:29.546Z,11.94
2023-02-28T11:12:59.779Z,9.19
2023-02-28T11:15:30.519Z,11.23
2023-02-28T11:18:38.288Z,10.11
2023-02-28T11:21:05.086Z,9.66
2023-02-28T11:23:36.940Z,10.97
2023-02-28T11:26:12.047Z,12.34
2023-02-28T11:28:43.228Z,14.07
2023-02-28T11:31:12.492Z,13.69
2023-02-28T11:33:51.962Z,13.49
2023-02-28T11:36:28.819Z,14.50
2023-02-28T11:39:02.649Z,14.60
2023-02-28T11:41:55.840Z,12.70
2023-02-28T11:44:43.321Z,8.70
2023-02-28T11:47:21.391Z,9.08
2023-02-28T11:50:21.007Z,7.12
2023-02-28T11:53:01.419Z,7.52
2023-02-28T11:55:43.135Z,9.71
2023-02-28T11:58:24.498Z,9.98
2023-02-28T12:00:57.826Z,8.56
2023-02-28T12:03:33.205Z,5.69
2023-02-28T12:06:05.498Z,6.11
2023-02-28T12:09:16.616Z,5.16
2023-02-28T12:11:56.538Z,6.02
2023-02-28T12:14:58.357Z,4.37
2023-02-28T12:17:51.274Z,4.21
2023-02-28T12:20:22.530Z,3.59
2023-02-28T12:23:10.960Z,3.70
2023-02-28T12:25:48.069Z,3.73
2023-02-28T12:28:18.958Z,3.73
2023-02-28T12:30:57.743Z,3.12
2023-02-28T12:33:27.428Z,3.24
2023-02-28T12:35:58.837Z,3.41
2023-02-28T12:41:15.558Z,4.10
2023-02-28T12:43:47.703Z,3.87
2023-02-28T12:46:46.208Z,3.92
2023-02-28T12:49:40.245Z,3.57
2023-02-28T12:52:12.025Z,3.84
2023-02-28T12:55:06.894Z,3.54
2023-02-28T12:57:51.650Z,3.34
2023-02-28T13:00:23.189Z,3.96
2023-02-28T13:03:24.139Z,4.52
2023-02-28T13:06:18.682Z,4.32
2023-02-28T13:09:17.458Z,4.32
2023-02-28T13:11:52.418Z,4.31
2023-02-28T13:14:38.241Z,4.11
2023-02-28T13:17:14.242Z,3.79
2023-02-28T13:19:56.539Z,4.08
2023-02-28T13:22:43.133Z,4.58
2023-02-28T13:25:28.441Z,4.54
2023-02-28T13:27:57.939Z,4.34
2023-02-28T13:30:56.963Z,4.08
2023-02-28T13:33:40.000Z,3.43
2023-02-28T13:36:18.474Z,3.55
2023-02-28T13:38:47.382Z,3.91
2023-02-28T13:41:32.354Z,4.04
2023-02-28T13:44:12.679Z,4.45
2023-02-28T13:46:48.241Z,4.44
2023-02-28T13:49:21.074Z,3.71
2023-02-28T13:52:20.436Z,3.78
2023-02-28T13:54:59.598Z,3.65
2023-02-28T13:57:44.806Z,3.93
2023-02-28T14:00:40.700Z,4.04
2023-02-28T14:03:16.137Z,3.46
2023-02-28T14:05:43.590Z,3.60
2023-02-28T14:08:23.366Z,3.84
2023-02-28T14:11:03.256Z,3.91
2023-02-28T14:13:46.108Z,3.61
2023-02-28T14:16:21.367Z,3.89
2023-02-28T14:19:13.339Z,4.05
2023-02-28T14:21:49.340Z,3.80
2023-02-28T14:24:43.974Z,3.27
2023-02-28T14:27:32.080Z,2.92
2023-02-28T14:30:16.689Z,3.12
2023-02-28T14:33:02.023Z,3.03
2023-02-28T14:35:49.014Z,3.14
2023-02-28T14:38:22.372Z,3.17
2023-02-28T14:40:52.007Z,3.21
2023-02-28T14:43:26.798Z,3.21
2023-02-28T14:45:56.784Z,3.13
2023-02-28T14:48:26.090Z,3.17
2023-02-28T14:50:56.286Z,3.21
2023-02-28T14:53:26.782Z,3.17
2023-02-28T14:55:53.959Z,3.19
2023-02-28T14:58:27.749Z,3.05
2023-02-28T15:00:57.577Z,3.06
2023-02-28T15:03:28.864Z,2.91
2023-02-28T15:05:58.365Z,2.97
2023-02-28T15:08:25.803Z,2.78
2023-02-28T15:11:02.270Z,2.76
2023-02-28T15:13:58.206Z,2.83
2023-02-28T15:16:33.978Z,2.72
2023-02-28T15:19:03.293Z,2.56
2023-02-28T15:21:36.334Z,2.52
2023-02-28T15:24:16.194Z,2.53
2023-02-28T15:26:49.895Z,2.38
2023-02-28T15:29:21.537Z,2.24
2023-02-28T15:31:58.002Z,2.26
2023-02-28T15:34:44.550Z,2.08
2023-02-28T15:37:31.763Z,2.17
2023-02-28T15:40:08.878Z,2.07
2023-02-28T15:42:35.396Z,2.04
2023-02-28T15:45:02.010Z,2.07
2023-02-28T15:47:30.963Z,2.07
2023-02-28T15:50:03.275Z,1.99
2023-02-28T15:52:38.569Z,1.90
2023-02-28T15:55:27.362Z,1.84
2023-02-28T15:58:01.673Z,1.89
2023-02-28T16:00:30.921Z,1.77
2023-02-28T16:02:57.576Z,1.61
2023-02-28T16:05:32.825Z,1.51
2023-02-28T16:08:02.249Z,1.47
2023-02-28T16:10:30.057Z,1.36
2023-02-28T16:12:58.283Z,1.36
2023-02-28T16:15:28.106Z,1.23
2023-02-28T16:17:55.637Z,1.18
2023-02-28T16:20:28.336Z,1.13
2023-02-28T16:22:55.640Z,1.06
2023-02-28T16:25:27.870Z,0.98
2023-02-28T16:27:55.547Z,0.88
2023-02-28T16:30:27.228Z,0.86
2023-02-28T16:32:56.238Z,0.82
2023-02-28T16:35:23.476Z,0.79
2023-02-28T16:37:52.612Z,0.68
2023-02-28T16:40:22.844Z,0.53
2023-02-28T16:42:53.445Z,0.36
2023-02-28T16:45:23.775Z,0.34
2023-02-28T16:47:50.492Z,0.24
2023-02-28T16:50:23.057Z,0.07
2023-02-28T16:52:50.522Z,-0.16
2023-02-28T16:55:17.194Z,-0.23
2023-02-28T16:57:44.374Z,-0.29
2023-02-28T17:00:14.039Z,-0.44
2023-02-28T17:02:42.647Z,-0.65
2023-02-28T17:05:11.872Z,-0.69
2023-02-28T17:07:38.735Z,-0.69
2023-02-28T17:10:15.439Z,-0.76
2023-02-28T17:12:42.017Z,-0.82
2023-02-28T17:15:11.192Z,-0.87
2023-02-28T17:17:37.996Z,-0.90
2023-02-28T17:20:06.801Z,-1.02
2023-02-28T17:22:33.561Z,-0.85
2023-02-28T17:25:00.050Z,-1.01
2023-02-28T17:27:26.612Z,-1.19
2023-02-28T17:29:53.119Z,-1.32
2023-02-28T17:32:20.109Z,-1.30
2023-02-28T17:34:47.199Z,-1.19
2023-02-28T17:37:14.208Z,-1.42
2023-02-28T17:39:40.768Z,-1.36
2023-02-28T17:42:07.378Z,-1.34
2023-02-28T17:44:33.930Z,-1.42
2023-02-28T17:47:00.700Z,-1.05
2023-02-28T17:49:28.168Z,-1.05
2023-02-28T17:51:54.654Z,-1.03
2023-02-28T17:54:21.185Z,-1.09
2023-02-28T17:56:47.691Z,-1.17
2023-02-28T17:59:14.740Z,-1.23
2023-02-28T18:01:41.321Z,-1.18
2023-02-28T18:04:08.039Z,-1.26
2023-02-28T18:06:48.421Z,-1.34
2023-02-28T18:09:16.765Z,-1.37
2023-02-28T18:11:44.834Z,-1.43
2023-02-28T18:14:11.797Z,-1.45
2023-02-28T18:16:39.094Z,-1.56
2023-02-28T18:19:07.032Z,-1.55
2023-02-28T18:21:33.611Z,-1.60
2023-02-28T18:24:00.129Z,-1.58
2023-02-28T18:26:26.673Z,-1.61
2023-02-28T18:28:53.156Z,-1.70
2023-02-28T18:31:21.026Z,-1.88
2023-02-28T18:33:52.269Z,-2.02
2023-02-28T18:36:20.907Z,-1.96
2023-02-28T18:38:48.673Z,-2.13
2023-02-28T18:41:15.183Z,-2.29
2023-02-28T18:43:41.762Z,-2.38
2023-02-28T18:46:11.536Z,-2.18
2023-02-28T18:48:38.728Z,-2.11
2023-02-28T18:51:12.953Z,-2.14
2023-02-28T18:53:40.775Z,-1.98
2023-02-28T18:56:09.232Z,-1.98
2023-02-28T18:58:35.884Z,-1.95
2023-02-28T19:01:04.286Z,-2.00
2023-02-28T19:03:30.876Z,-2.11
2023-02-28T19:05:59.671Z,-2.11
2023-02-28T19:08:26.918Z,-2.12
2023-02-28T19:10:53.433Z,-2.21
2023-02-28T19:13:20.901Z,-2.17
2023-02-28T19:15:47.824Z,-2.14
2023-02-28T19:18:14.308Z,-2.18
2023-02-28T19:20:40.863Z,-2.27
2023-02-28T19:23:07.394Z,-2.40
2023-02-28T19:25:34.061Z,-2.42
2023-02-28T19:28:00.581Z,-2.49
2023-02-28T19:30:27.189Z,-2.35
2023-02-28T19:32:53.743Z,-2.37
2023-02-28T19:35:20.360Z,-2.43
2023-02-28T19:37:46.860Z,-2.32
2023-02-28T19:40:13.913Z,-2.41
2023-02-28T19:42:40.608Z,-2.68
2023-02-28T19:45:10.108Z,-2.69
2023-02-28T19:47:36.722Z,-2.41
2023-02-28T19:50:03.384Z,-2.38
2023-02-28T19:52:29.972Z,-2.40
2023-02-28T19:54:56.452Z,-2.46
2023-02-28T19:57:22.927Z,-2.57
2023-02-28T19:59:51.109Z,-2.51
2023-02-28T20:02:20.495Z,-2.46
2023-02-28T20:04:51.680Z,-2.45
2023-02-28T20:07:22.082Z,-2.48
2023-02-28T20:09:49.139Z,-2.42
2023-02-28T20:12:24.230Z,-2.61
2023-02-28T20:14:51.706Z,-2.75
2023-02-28T20:17:18.917Z,-2.70
2023-02-28T20:19:46.090Z,-2.71
2023-02-28T20:22:12.820Z,-2.74
2023-02-28T20:24:39.429Z,-2.76
2023-02-28T20:27:05.986Z,-2.82
2023-02-28T20:29:34.088Z,-2.84
2023-02-28T20:32:00.966Z,-2.82
2023-02-28T20:34:27.599Z,-2.86
2023-02-28T20:36:56.553Z,-2.88
2023-02-28T20:39:23.853Z,-2.93
2023-02-28T20:41:50.649Z,-2.93
2023-02-28T20:44:17.174Z,-2.93
2023-02-28T20:46:43.932Z,-3.02
2023-02-28T20:49:11.060Z,-2.94
2023-02-28T20:51:40.166Z,-2.89
2023-02-28T20:54:07.649Z,-3.12
2023-02-28T20:56:34.414Z,-3.39
2023-02-28T20:59:01.024Z,-3.40
2023-02-28T21:01:29.380Z,-3.52
2023-02-28T21:03:57.198Z,-3.56
2023-02-28T21:06:27.349Z,-3.52
2023-02-28T21:08:54.844Z,-3.30
2023-02-28T21:11:28.949Z,-3.57
2023-02-28T21:13:58.338Z,-3.53
2023-02-28T21:16:27.298Z,-3.43
2023-02-28T21:18:54.261Z,-3.52
2023-02-28T21:21:23.412Z,-3.44
2023-02-28T21:23:51.871Z,-3.48
2023-02-28T21:26:21.343Z,-3.46
2023-02-28T21:28:53.319Z,-3.58
2023-02-28T21:31:22.059Z,-3.67
2023-02-28T21:33:49.196Z,-3.66
2023-02-28T21:36:20.957Z,-3.71
2023-02-28T21:38:51.083Z,-3.49
2023-02-28T21:41:19.728Z,-3.78
2023-02-28T21:43:47.669Z,-3.76
2023-02-28T21:46:22.546Z,-3.87
2023-02-28T21:48:49.591Z,-3.95
2023-02-28T21:51:20.017Z,-3.74
2023-02-28T21:53:48.374Z,-3.74
2023-02-28T21:56:18.356Z,-3.67
2023-02-28T21:58:45.206Z,-3.59
2023-02-28T22:01:22.718Z,-3.60
2023-02-28T22:03:50.422Z,-3.66
2023-02-28T22:06:22.766Z,-3.55
2023-02-28T22:08:53.285Z,-3.60
2023-02-28T22:11:20.680Z,-3.55
2023-02-28T22:13:48.810Z,-3.61
2023-02-28T22:16:18.208Z,-3.62
2023-02-28T22:18:45.162Z,-3.77
2023-02-28T22:21:13.501Z,-3.74
2023-02-28T22:23:41.750Z,-3.79
2023-02-28T22:26:11.602Z,-3.75
2023-02-28T22:28:38.666Z,-3.92
2023-02-28T22:31:24.673Z,-4.00
2023-02-28T22:33:54.504Z,-4.04
2023-02-28T22:36:21.414Z,-4.13
2023-02-28T22:38:50.887Z,-4.25
2023-02-28T22:41:19.403Z,-4.36
2023-02-28T22:43:50.998Z,-4.57
2023-02-28T22:46:17.809Z,-4.71
2023-02-28T22:48:44.376Z,-4.83
2023-02-28T22:51:14.956Z,-4.85
2023-02-28T22:53:43.760Z,-4.99
2023-02-28T22:56:12.107Z,-4.82
2023-02-28T22:58:38.693Z,-4.58
2023-02-28T23:01:16.719Z,-4.65
2023-02-28T23:03:43.829Z,-4.90
2023-02-28T23:06:29.289Z,-4.91
2023-02-28T23:08:59.774Z,-4.91
2023-02-28T23:11:39.638Z,-4.90
2023-02-28T23:14:06.969Z,-4.96
2023-02-28T23:16:39.589Z,-5.02
2023-02-28T23:19:09.695Z,-5.08
2023-02-28T23:21:37.286Z,-5.17
2023-02-28T23:24:06.053Z,-5.20
2023-02-28T23:26:33.112Z,-5.20
2023-02-28T23:28:59.785Z,-5.16
2023-02-28T23:31:26.430Z,-5.27
2023-02-28T23:33:53.110Z,-5.34
2023-02-28T23:36:19.823Z,-5.33
2023-02-28T23:38:48.975Z,-5.31
2023-02-28T23:41:16.577Z,-5.28
2023-02-28T23:43:43.889Z,-5.23
2023-02-28T23:46:11.905Z,-5.42
2023-02-28T23:48:39.631Z,-5.32
2023-02-28T23:51:09.969Z,-5.31
2023-02-28T23:53:38.657Z,-5.49
2023-02-28T23:56:07.640Z,-5.60
2023-02-28T23:58:34.422Z,-5.67
